createdAt,value
2018-04-16T00:00:49.781Z,5.33
2018-04-16T00:03:17.375Z,5.67
2018-04-16T00:05:44.912Z,5.87
2018-04-16T00:08:12.578Z,6.20
2018-04-16T00:10:40.899Z,6.00
2018-04-16T00:13:08.507Z,6.73
2018-04-16T00:15:36.824Z,7.13
2018-04-16T00:18:04.424Z,6.80
2018-04-16T00:20:32.025Z,6.10
2018-04-16T00:22:59.627Z,7.30
2018-04-16T00:25:27.239Z,5.70
2018-04-16T00:27:55.549Z,5.90
2018-04-16T00:30:23.150Z,6.40
2018-04-16T00:32:56.395Z,6.20
2018-04-16T00:35:29.635Z,6.10
2018-04-16T00:38:02.879Z,7.40
2018-04-16T00:40:36.243Z,7.50
2018-04-16T00:43:09.599Z,6.90
2018-04-16T00:45:42.845Z,7.73
2018-04-16T00:48:16.853Z,9.23
2018-04-16T00:50:50.050Z,8.03
2018-04-16T00:53:24.009Z,7.90
2018-04-16T00:55:57.968Z,8.53
2018-04-16T00:58:31.928Z,8.20
2018-04-16T01:01:05.169Z,8.80
2018-04-16T01:03:39.373Z,9.63
2018-04-16T01:06:12.612Z,7.87
2018-04-16T01:08:45.855Z,7.93
2018-04-16T01:14:20.202Z,9.00
2018-04-16T01:16:53.360Z,9.90
2018-04-16T01:19:26.440Z,10.70
2018-04-16T01:21:59.618Z,11.20
2018-04-16T01:24:32.645Z,11.90
2018-04-16T01:27:06.602Z,11.80
2018-04-16T01:29:40.559Z,11.20
2018-04-16T01:32:14.390Z,11.00
2018-04-16T01:34:47.589Z,11.63
2018-04-16T01:37:21.501Z,12.60
2018-04-16T01:39:54.709Z,11.90
2018-04-16T01:42:27.940Z,11.00
2018-04-16T01:45:01.114Z,11.87
2018-04-16T01:47:34.166Z,11.67
2018-04-16T01:50:07.418Z,12.07
2018-04-16T01:52:41.202Z,11.07
2018-04-16T01:55:14.382Z,11.50
2018-04-16T01:57:47.442Z,11.67
2018-04-16T02:00:20.690Z,12.10
2018-04-16T02:02:54.552Z,11.60
2018-04-16T02:05:27.746Z,11.87
2018-04-16T02:08:00.962Z,10.77
2018-04-16T02:10:34.809Z,13.37
2018-04-16T02:16:10.694Z,12.03
2018-04-16T02:18:43.930Z,10.60
2018-04-16T02:21:17.750Z,11.87
2018-04-16T02:23:50.921Z,11.90
2018-04-16T02:26:23.958Z,11.73
2018-04-16T02:28:57.122Z,11.03
2018-04-16T02:31:30.222Z,10.20
2018-04-16T02:34:04.034Z,10.50
2018-04-16T02:36:37.206Z,11.93
2018-04-16T02:39:11.134Z,12.40
2018-04-16T02:41:44.366Z,11.40
2018-04-16T02:44:17.456Z,12.33
2018-04-16T02:46:50.641Z,11.17
2018-04-16T02:49:23.682Z,12.70
2018-04-16T02:51:56.778Z,11.60
2018-04-16T02:54:30.722Z,13.10
2018-04-16T02:57:03.826Z,12.90
2018-04-16T02:59:37.851Z,12.67
2018-04-16T03:02:11.078Z,12.57
2018-04-16T03:04:44.885Z,12.77
2018-04-16T03:07:18.086Z,11.97
2018-04-16T03:09:51.098Z,11.10
2018-04-16T03:12:24.321Z,11.37
2018-04-16T03:14:57.388Z,11.90
2018-04-16T03:17:30.592Z,12.33
2018-04-16T03:20:04.566Z,13.80
2018-04-16T03:22:37.594Z,11.60
2018-04-16T03:25:10.788Z,12.63
2018-04-16T03:27:43.774Z,11.90
2018-04-16T03:30:16.966Z,13.70
2018-04-16T03:32:50.165Z,13.10
2018-04-16T03:35:23.221Z,12.80
2018-04-16T03:37:56.422Z,12.00
2018-04-16T03:40:30.310Z,13.10
2018-04-16T03:43:03.550Z,13.63
2018-04-16T03:45:36.662Z,14.47
2018-04-16T03:48:09.842Z,13.50
2018-04-16T03:50:42.902Z,13.50
2018-04-16T03:53:16.069Z,15.70
2018-04-16T03:55:59.266Z,14.20
2018-04-16T03:58:26.722Z,13.50
2018-04-16T04:00:54.158Z,14.93
2018-04-16T04:03:22.362Z,14.80
2018-04-16T04:05:49.803Z,15.27
2018-04-16T04:08:17.247Z,12.93
2018-04-16T04:10:44.687Z,16.00
2018-04-16T04:13:12.905Z,14.63
2018-04-16T04:15:40.337Z,14.50
2018-04-16T04:18:07.786Z,15.77
2018-04-16T04:20:35.225Z,15.50
2018-04-16T04:26:16.649Z,15.57
2018-04-16T04:28:56.073Z,16.47
2018-04-16T04:31:23.514Z,16.17
2018-04-16T04:33:50.958Z,16.83
2018-04-16T04:36:18.399Z,19.80
2018-04-16T04:38:46.609Z,27.93
2018-04-16T04:41:14.046Z,29.23
2018-04-16T04:43:41.497Z,26.13
2018-04-16T04:46:08.929Z,23.80
2018-04-16T04:48:37.142Z,19.70
2018-04-16T04:51:04.577Z,18.83
2018-04-16T04:53:32.026Z,18.43
2018-04-16T04:55:59.471Z,17.43
2018-04-16T04:58:27.681Z,18.60
2018-04-16T05:00:55.889Z,18.77
2018-04-16T05:03:23.330Z,19.17
2018-04-16T05:05:50.766Z,19.30
2018-04-16T05:08:18.206Z,19.20
2018-04-16T05:10:46.413Z,20.27
2018-04-16T05:13:14.621Z,19.90
2018-04-16T05:15:42.066Z,19.90
2018-04-16T05:18:09.501Z,21.60
2018-04-16T05:20:36.942Z,20.83
2018-04-16T05:23:05.145Z,21.70
2018-04-16T05:25:33.353Z,21.47
2018-04-16T05:28:00.798Z,20.70
2018-04-16T05:30:28.238Z,22.60
2018-04-16T05:32:55.677Z,23.03
2018-04-16T06:57:21.006Z,27.90
2018-04-16T06:59:48.465Z,26.60
2018-04-16T07:02:15.927Z,29.00
2018-04-16T07:04:44.169Z,25.07
2018-04-16T07:07:11.630Z,25.40
2018-04-16T07:09:39.081Z,26.97
2018-04-16T07:12:07.283Z,26.23
2018-04-16T07:14:35.499Z,25.97
2018-04-16T07:17:02.942Z,24.37
2018-04-16T07:19:30.390Z,22.37
2018-04-16T07:21:57.832Z,24.63
2018-04-16T07:24:26.039Z,24.20
2018-04-16T07:26:53.513Z,23.27
2018-04-16T07:29:21.735Z,23.60
2018-04-16T07:31:49.166Z,23.47
2018-04-16T07:34:16.614Z,24.20
2018-04-16T07:36:44.050Z,24.03
2018-04-16T07:39:12.262Z,22.77
2018-04-16T07:41:39.707Z,23.40
2018-04-16T07:44:07.154Z,23.23
2018-04-16T07:46:34.586Z,23.37
2018-04-16T07:49:02.822Z,23.80
2018-04-16T07:51:30.279Z,22.23
2018-04-16T07:53:57.714Z,21.10
2018-04-16T07:56:25.166Z,21.90
2018-04-16T07:58:52.594Z,21.77
2018-04-16T08:01:20.054Z,20.80
2018-04-16T08:03:47.490Z,22.57
2018-04-16T08:06:14.938Z,20.50
2018-04-16T08:08:42.381Z,19.27
2018-04-16T08:11:09.841Z,17.73
2018-04-16T08:13:37.278Z,19.80
2018-04-16T08:16:04.777Z,19.80
2018-04-16T08:18:32.162Z,20.33
2018-04-16T08:20:59.606Z,18.33
2018-04-16T08:23:27.050Z,17.43
2018-04-16T08:25:54.489Z,15.87
2018-04-16T08:28:22.699Z,16.23
2018-04-16T08:30:50.905Z,14.73
2018-04-16T08:33:18.408Z,13.80
2018-04-16T08:35:45.801Z,13.83
2018-04-16T08:38:13.243Z,14.30
2018-04-16T08:40:41.451Z,13.97
2018-04-16T08:43:08.885Z,12.43
2018-04-16T08:45:36.330Z,11.33
2018-04-16T08:48:03.778Z,11.00
2018-04-16T08:50:31.990Z,12.47
2018-04-16T08:52:59.426Z,11.07
2018-04-16T08:55:26.877Z,10.80
2018-04-16T08:57:54.328Z,10.97
2018-04-16T09:00:22.538Z,9.23
2018-04-16T09:02:49.975Z,9.07
2018-04-16T09:05:17.410Z,9.90
2018-04-16T09:07:44.846Z,9.70
2018-04-16T09:10:12.294Z,8.73
2018-04-16T09:12:39.726Z,8.50
2018-04-16T09:15:07.935Z,9.30
2018-04-16T09:17:35.370Z,9.07
2018-04-16T09:20:02.810Z,8.20
2018-04-16T09:22:30.247Z,7.83
2018-04-16T09:24:57.685Z,8.97
2018-04-16T09:27:25.124Z,9.03
2018-04-16T09:29:53.334Z,9.40
2018-04-16T09:32:20.766Z,9.10
2018-04-16T09:34:48.215Z,8.77
2018-04-16T09:37:15.642Z,9.00
2018-04-16T09:39:43.085Z,8.03
2018-04-16T09:42:10.525Z,8.17
2018-04-16T09:44:38.742Z,8.53
2018-04-16T09:47:06.187Z,9.10
2018-04-16T09:49:33.618Z,8.20
2018-04-16T09:52:01.066Z,8.13
2018-04-16T09:54:29.266Z,8.50
2018-04-16T09:56:57.483Z,8.17
2018-04-16T09:59:24.915Z,8.30
2018-04-16T10:01:52.362Z,7.70
2018-04-16T10:04:19.790Z,7.87
2018-04-16T10:06:47.998Z,7.73
2018-04-16T10:09:16.210Z,7.80
2018-04-16T10:11:44.414Z,8.17
2018-04-16T10:14:11.849Z,8.00
2018-04-16T10:16:39.296Z,8.27
2018-04-16T10:19:06.738Z,8.10
2018-04-16T10:21:34.947Z,7.83
2018-04-16T10:24:02.386Z,10.50
2018-04-16T10:26:29.866Z,8.77
2018-04-16T10:28:57.261Z,9.13
2018-04-16T10:31:24.714Z,7.80
2018-04-16T10:33:52.150Z,8.00
2018-04-16T10:36:19.595Z,8.90
2018-04-16T10:38:47.028Z,7.83
2018-04-16T10:41:14.474Z,8.73
2018-04-16T10:43:42.673Z,8.50
2018-04-16T10:46:10.120Z,7.57
2018-04-16T10:48:37.559Z,8.00
2018-04-16T10:51:05.765Z,7.30
2018-04-16T10:53:33.208Z,7.70
2018-04-16T10:56:00.666Z,7.47
2018-04-16T10:58:28.093Z,7.83
2018-04-16T11:00:55.561Z,8.50
2018-04-16T11:03:22.974Z,8.30
2018-04-16T11:05:50.417Z,8.30
2018-04-16T11:08:18.618Z,7.97
2018-04-16T11:10:46.833Z,7.90
2018-04-16T11:13:14.270Z,7.10
2018-04-16T11:15:41.711Z,7.60
2018-04-16T11:18:09.157Z,7.77
2018-04-16T11:20:36.601Z,7.43
2018-04-16T11:23:04.040Z,8.97
2018-04-16T11:25:31.489Z,7.40
2018-04-16T11:27:58.925Z,8.40
2018-04-16T11:30:26.375Z,8.30
2018-04-16T11:32:54.577Z,7.70
2018-04-16T11:35:22.037Z,7.17
2018-04-16T11:37:50.247Z,8.27
2018-04-16T11:40:18.450Z,7.60
2018-04-16T11:42:46.655Z,8.60
2018-04-16T11:45:14.090Z,7.83
2018-04-16T11:47:41.529Z,7.97
2018-04-16T11:50:08.970Z,7.93
2018-04-16T11:52:36.414Z,7.63
2018-04-16T11:55:03.847Z,6.70
2018-04-16T11:57:32.095Z,7.03
2018-04-16T11:59:59.511Z,6.80
2018-04-16T12:02:26.945Z,7.50
2018-04-16T12:04:54.382Z,7.47
2018-04-16T12:07:22.591Z,7.30
2018-04-16T12:09:50.022Z,6.30
2018-04-16T12:12:17.466Z,6.30
2018-04-16T12:14:44.903Z,6.90
2018-04-16T12:17:12.346Z,6.50
2018-04-16T12:19:39.782Z,5.80
2018-04-16T12:22:07.985Z,6.87
2018-04-16T12:24:36.186Z,6.07
2018-04-16T12:27:04.391Z,6.17
2018-04-16T12:29:31.821Z,5.20
2018-04-16T12:31:59.262Z,4.50
2018-04-16T12:34:26.694Z,4.23
2018-04-16T12:36:54.146Z,4.80
2018-04-16T12:39:21.581Z,5.60
2018-04-16T12:41:49.792Z,5.20
2018-04-16T12:44:17.990Z,4.63
2018-04-16T12:46:46.206Z,5.60
2018-04-16T12:49:13.638Z,4.80
2018-04-16T12:51:41.075Z,4.67
2018-04-16T12:54:08.509Z,4.33
2018-04-16T12:56:35.942Z,4.80
2018-04-16T12:59:03.377Z,3.83
2018-04-16T13:01:31.595Z,2.97
2018-04-16T13:03:59.786Z,3.33
2018-04-16T13:06:27.995Z,2.93
2018-04-16T13:08:55.427Z,2.70
2018-04-16T13:11:22.867Z,3.60
2018-04-16T13:13:50.304Z,2.57
2018-04-16T13:16:17.735Z,3.10
2018-04-16T13:18:45.166Z,2.90
2018-04-16T13:21:12.606Z,3.17
2018-04-16T13:23:40.039Z,3.67
2018-04-16T13:26:08.260Z,2.97
2018-04-16T13:28:35.685Z,3.47
2018-04-16T13:31:03.130Z,3.40
2018-04-16T13:33:30.561Z,2.23
2018-04-16T13:35:57.998Z,1.80
2018-04-16T13:38:25.455Z,2.03
2018-04-16T13:40:53.650Z,1.77
2018-04-16T13:43:21.854Z,1.60
2018-04-16T13:45:49.299Z,1.40
2018-04-16T13:48:16.738Z,1.60
2018-04-16T13:50:44.165Z,1.73
2018-04-16T13:53:11.602Z,1.70
2018-04-16T13:55:39.038Z,1.73
2018-04-16T13:58:06.493Z,1.40
2018-04-16T14:00:33.921Z,1.67
2018-04-16T14:03:01.365Z,1.20
2018-04-16T14:05:28.795Z,1.33
2018-04-16T14:07:57.008Z,1.30
2018-04-16T14:10:24.438Z,1.33
2018-04-16T14:12:52.646Z,1.10
2018-04-16T14:15:20.850Z,1.33
2018-04-16T14:17:49.058Z,1.30
2018-04-16T14:20:16.493Z,1.20
2018-04-16T14:22:43.926Z,1.20
2018-04-16T14:25:11.358Z,1.60
2018-04-16T14:27:38.796Z,1.30
2018-04-16T14:30:06.994Z,1.53
2018-04-16T14:32:35.264Z,1.40
2018-04-16T14:35:03.455Z,1.50
2018-04-16T14:37:31.658Z,1.30
2018-04-16T14:39:59.862Z,1.63
2018-04-16T14:42:28.066Z,1.80
2018-04-16T14:44:55.497Z,2.03
2018-04-16T14:47:22.933Z,2.03
2018-04-16T14:49:50.366Z,1.93
2018-04-16T14:52:17.803Z,2.00
2018-04-16T14:54:45.229Z,1.80
2018-04-16T14:57:12.674Z,2.70
2018-04-16T14:59:40.108Z,3.33
2018-04-16T15:02:07.546Z,3.07
2018-04-16T15:04:34.977Z,3.30
2018-04-16T15:07:03.183Z,2.20
2018-04-16T15:09:31.385Z,2.60
2018-04-16T15:11:58.830Z,2.30
2018-04-16T15:14:26.267Z,2.43
2018-04-16T15:16:53.709Z,2.20
2018-04-16T15:19:21.138Z,2.13
2018-04-16T15:21:48.577Z,2.53
2018-04-16T15:24:16.778Z,2.60
2018-04-16T15:26:44.980Z,2.73
2018-04-16T15:29:13.173Z,2.20
2018-04-16T15:31:41.377Z,2.23
2018-04-16T15:34:09.582Z,2.10
2018-04-16T15:36:37.845Z,2.40
2018-04-16T15:39:06.074Z,5.40
2018-04-16T15:41:34.273Z,4.43
2018-04-16T15:44:02.477Z,2.93
2018-04-16T15:46:30.677Z,2.30
2018-04-16T15:48:58.117Z,2.53
2018-04-16T15:51:25.550Z,2.97
2018-04-16T15:53:52.998Z,1.73
2018-04-16T15:56:20.430Z,2.10
2018-04-16T15:58:47.871Z,2.10
2018-04-16T16:01:16.113Z,2.50
2018-04-16T16:03:43.590Z,3.17
2018-04-16T16:06:11.019Z,4.17
2018-04-16T16:08:38.457Z,6.30
2018-04-16T16:11:05.890Z,4.70
2018-04-16T16:13:34.109Z,5.10
2018-04-16T16:16:01.538Z,7.37
2018-04-16T16:18:28.980Z,7.50
2018-04-16T16:20:56.424Z,6.37
2018-04-16T16:23:23.855Z,5.70
2018-04-16T16:25:51.290Z,3.80
2018-04-16T16:28:19.498Z,4.00
2018-04-16T16:30:47.694Z,3.63
2018-04-16T16:33:15.901Z,3.63
2018-04-16T16:35:44.094Z,4.40
2018-04-16T16:38:12.298Z,3.20
2018-04-16T16:40:39.730Z,4.13
2018-04-16T16:43:07.170Z,7.60
2018-04-16T16:45:34.603Z,5.77
2018-04-16T16:48:02.042Z,3.20
2018-04-16T16:50:29.469Z,4.40
2018-04-16T16:52:56.912Z,3.80
2018-04-16T16:55:24.338Z,3.00
2018-04-16T16:57:51.777Z,3.70
2018-04-16T17:00:19.213Z,3.37
2018-04-16T17:02:47.418Z,3.50
2018-04-16T17:05:15.618Z,4.60
2018-04-16T17:07:43.822Z,4.10
2018-04-16T17:10:11.250Z,4.00
2018-04-16T17:12:39.453Z,4.60
2018-04-16T17:15:06.886Z,4.83
2018-04-16T17:17:34.329Z,4.10
2018-04-16T17:20:01.788Z,3.33
2018-04-16T17:22:29.202Z,10.87
2018-04-16T17:24:57.410Z,11.40
2018-04-16T17:27:25.611Z,4.90
2018-04-16T17:29:53.813Z,4.30
2018-04-16T17:32:21.244Z,3.97
2018-04-16T17:34:48.690Z,5.27
2018-04-16T17:37:16.118Z,3.97
2018-04-16T17:39:43.566Z,3.63
2018-04-16T17:42:11.003Z,5.47
2018-04-16T17:44:38.437Z,4.40
2018-04-16T17:47:05.871Z,4.37
2018-04-16T17:49:34.075Z,4.43
2018-04-16T17:52:02.279Z,4.43
2018-04-16T17:54:29.714Z,4.27
2018-04-16T17:56:57.146Z,3.90
2018-04-16T17:59:24.586Z,5.50
2018-04-16T18:01:52.026Z,4.63
2018-04-16T18:04:19.457Z,5.10
2018-04-16T18:06:46.885Z,4.40
2018-04-16T18:09:14.326Z,4.20
2018-04-16T18:11:42.521Z,4.37
2018-04-16T18:14:10.757Z,4.30
2018-04-16T18:16:38.186Z,4.87
2018-04-16T18:19:05.633Z,4.90
2018-04-16T18:21:33.092Z,4.70
2018-04-16T18:24:00.522Z,5.00
2018-04-16T18:26:27.954Z,5.07
2018-04-16T18:28:55.394Z,4.53
2018-04-16T18:31:22.828Z,4.90
2018-04-16T18:33:50.269Z,5.10
2018-04-16T18:36:18.470Z,5.30
2018-04-16T18:38:46.680Z,5.40
2018-04-16T18:41:14.874Z,5.97
2018-04-16T18:43:43.078Z,5.60
2018-04-16T18:46:10.509Z,4.83
2018-04-16T18:48:37.947Z,5.97
2018-04-16T18:51:05.377Z,5.23
2018-04-16T18:53:33.099Z,5.37
2018-04-16T18:56:01.298Z,5.00
2018-04-16T18:58:29.507Z,5.37
2018-04-16T19:00:56.938Z,5.63
2018-04-16T19:03:24.377Z,5.93
2018-04-16T19:05:51.809Z,4.80
2018-04-16T19:08:19.250Z,6.67
2018-04-16T19:10:46.682Z,5.20
2018-04-16T19:13:14.122Z,5.67
2018-04-16T19:15:41.621Z,6.50
2018-04-16T19:18:09.753Z,5.90
2018-04-16T19:23:41.729Z,5.60
2018-04-16T19:26:09.167Z,6.23
2018-04-16T19:28:36.603Z,6.00
2018-04-16T19:31:04.042Z,5.30
2018-04-16T19:36:38.182Z,6.03
2018-04-16T19:39:05.626Z,6.57
2018-04-16T19:41:38.782Z,7.20
2018-04-16T19:44:06.226Z,6.50
2018-04-16T19:46:33.657Z,6.30
2018-04-16T19:49:06.891Z,6.70
2018-04-16T19:51:35.092Z,6.93
2018-04-16T19:54:03.338Z,6.33
2018-04-16T19:56:37.237Z,6.07
2018-04-16T19:59:05.441Z,6.17
2018-04-16T20:01:32.877Z,6.70
2018-04-16T20:04:00.866Z,7.20
2018-04-16T20:06:28.298Z,6.50
2018-04-16T20:08:55.738Z,6.20
2018-04-16T20:11:23.170Z,6.43
2018-04-16T20:13:50.601Z,6.80
2018-04-16T20:16:18.042Z,6.23
2018-04-16T20:18:45.487Z,6.83
2018-04-16T20:21:13.686Z,5.70
2018-04-16T20:23:41.886Z,5.70
2018-04-16T20:26:10.090Z,6.17
2018-04-16T20:28:37.522Z,5.53
2018-04-16T20:31:04.972Z,6.40
2018-04-16T20:33:32.405Z,4.67
2018-04-16T20:35:59.862Z,5.20
2018-04-16T20:38:27.285Z,5.37
2018-04-16T20:40:55.491Z,4.93
2018-04-16T20:43:22.921Z,4.57
2018-04-16T20:45:50.361Z,5.70
2018-04-16T20:48:17.794Z,5.30
2018-04-16T20:50:45.240Z,5.00
2018-04-16T20:53:12.665Z,4.33
2018-04-16T20:55:40.105Z,5.03
2018-04-16T20:58:07.542Z,4.80
2018-04-16T21:00:35.763Z,5.37
2018-04-16T21:03:03.194Z,4.90
2018-04-16T21:05:30.686Z,6.50
2018-04-16T21:07:58.154Z,5.40
2018-04-16T21:10:25.637Z,5.70
2018-04-16T21:12:53.117Z,6.00
2018-04-16T21:15:20.593Z,6.40
2018-04-16T21:17:48.065Z,7.10
2018-04-16T21:20:15.541Z,6.30
2018-04-16T21:22:43.014Z,6.93
2018-04-16T21:25:10.494Z,6.30
2018-04-16T21:27:37.969Z,7.23
2018-04-16T21:30:05.450Z,5.73
2018-04-16T21:32:32.925Z,7.27
2018-04-16T21:35:00.411Z,7.07
2018-04-16T21:37:27.883Z,6.80
2018-04-16T21:39:55.365Z,6.90
2018-04-16T21:42:22.839Z,7.73
2018-04-16T21:44:51.085Z,7.80
2018-04-16T21:47:18.566Z,7.27
2018-04-16T21:49:46.057Z,7.77
2018-04-16T21:52:13.537Z,8.20
2018-04-16T21:54:41.025Z,7.40
2018-04-16T21:57:08.502Z,7.50
2018-04-16T21:59:35.990Z,7.60
2018-04-16T22:02:03.581Z,7.80
2018-04-16T22:04:31.058Z,8.10
2018-04-16T22:06:58.541Z,7.83
2018-04-16T22:09:26.026Z,7.00
2018-04-16T22:11:53.513Z,7.43
2018-04-16T22:14:20.993Z,7.57
2018-04-16T22:16:48.469Z,7.93
2018-04-16T22:19:15.945Z,6.47
2018-04-16T22:21:43.433Z,7.37
2018-04-16T22:24:10.902Z,7.50
2018-04-16T22:26:38.385Z,8.00
2018-04-16T22:29:06.624Z,8.00
2018-04-16T22:31:34.879Z,8.37
2018-04-16T22:34:02.345Z,8.30
2018-04-16T22:36:29.830Z,8.63
2018-04-16T22:38:57.302Z,7.83
2018-04-16T22:41:24.782Z,7.70
2018-04-16T22:43:52.259Z,7.70
2018-04-16T22:46:19.753Z,8.57
2018-04-16T22:48:47.234Z,8.53
2018-04-16T22:51:14.733Z,8.53
2018-04-16T22:53:42.210Z,8.07
2018-04-16T22:56:09.697Z,7.63
2018-04-16T22:58:37.173Z,8.13
2018-04-16T23:01:05.434Z,8.63
2018-04-16T23:03:32.923Z,7.40
2018-04-16T23:06:00.412Z,8.37
2018-04-16T23:08:27.894Z,9.60
2018-04-16T23:10:55.374Z,8.00
2018-04-16T23:13:22.858Z,8.93
2018-04-16T23:15:50.353Z,9.20
2018-04-16T23:18:17.830Z,9.80
2018-04-16T23:20:45.310Z,8.03
2018-04-16T23:23:12.786Z,9.30
2018-04-16T23:25:40.266Z,8.53
2018-04-16T23:28:07.742Z,8.67
2018-04-16T23:30:35.229Z,7.97
2018-04-16T23:33:02.709Z,9.40
2018-04-16T23:35:30.190Z,9.30
2018-04-16T23:37:57.669Z,9.40
2018-04-16T23:40:25.154Z,10.50
2018-04-16T23:42:52.633Z,10.67
2018-04-16T23:45:20.117Z,9.80
2018-04-16T23:47:47.590Z,9.67
2018-04-16T23:50:15.069Z,10.10
2018-04-16T23:52:42.553Z,11.73
2018-04-16T23:55:10.025Z,11.00
2018-04-16T23:57:38.276Z,10.50
